Terminal Aerodrome Forecast
Issued by NWS

Home | Current Version | Previous Version | Graphics & Text | Print | Product List | Glossary On
Versions: 1 2 3 4 5 6 7 8 9 10 11 12 13 14 15 16
000
FTUS43 KUNR 160645 AAA
TAFGCC
TAF AMD
KGCC 160645Z 1607/1706 32016G26KT 5SM -SN BR SCT006 BKN015
     FM160900 33015KT P6SM SCT025 BKN070
     FM161700 35014KT P6SM OVC025
     FM170100 31007KT P6SM OVC050=

USA.gov is the U.S. government's official web portal to all federal, state and local government web resources and services.